Aeroporto :
LOGIN :

Iscrizione | Disclaimer

   EN    FR    IT 

 










Sommario :    VFR   VFR Marginale   IFR   IFR Intensivo   IFR Molto Intensivo
Visibilità : 
Base nubi : 
>= 8 km
>= 3000ft
5 / 8 km
1000 / 3000 ft
1500m / 5 km
500 / 1000 ft
800 / 1500m
200 / 500 ft
< 800m
< 200 ft
Simboli :   Temporali  Nebbia  Neve Forte  Precipitazioni Forti  Vento > 20 kt
SIGMETs :   Varie  Temporali  Ghiacco  Turbolenza  Onda orograficha  Ceneri Vulcaniche







- Altitudine del aeroporto : 46 ft
- Codice IATA : SNN


EINN - Shannon

ULTIMO METAR :
  • 241130Z VRB03KT 9999 FEW016 BKN060 19/14 Q1016 NOSIG

METARs OBSOLETI :
  • 241100Z VRB02KT 9999 FEW025 BKN060 19/14 Q1016 NOSIG
  • 241030Z 19004KT 130V240 9999 FEW012 SCT022 BKN060 18/14 Q1016 NOSIG
  • 241000Z VRB03KT 9999 SCT013 SCT021 BKN060 18/14 Q1016 NOSIG
  • 240930Z VRB02KT 9999 FEW008 SCT017 BKN060 17/14 Q1015 NOSIG
  • 240900Z 13004KT 100V170 9999 FEW008 SCT014 BKN060 17/14 Q1015 NOSIG

TAF TAF EINN
Valido dal 24 a 12 ore il 25 a 12 ore UTC


241100Z 2412/2512 VRB03KT 9999 FEW020 BKN040
TEMPO 2412/2422 -SHRA SCT020CB
BECMG 2414/2416 34010KT
PROB40
TEMPO 2414/2420 4000 SHRA
PROB40
TEMPO 2422/2508 2500 BR BKN005
PROB30
TEMPO 2508/2510 BKN007
Nessun NOTAM noto per questo aeroporto.



MetMap, La meteo Aeronautica in un colpo d'occhio ! - Copyright ORBIFLY Dicembre 2007 - Disclaimer

ORBIFLY MET'MAP TEAM :

Programmazione e sviluppo : Alexandra Zaïnal
Concezione e sviluppo : Baudouin d'Aumeries
Co-Programmazione e sviluppo : Marc-Olivier Méhu
Supporto tecnico e logistico : Manuel Goepfert
Aiuto per la traduzione : Arnaldo La Scala

Contatto : metmap@orbifly.com




FONTI E CREDITI :

   NOAA